createdAt,value
2023-01-03T00:00:46.552Z,1017.39
2023-01-03T00:01:46.188Z,1017.42
2023-01-03T00:02:46.257Z,1017.42
2023-01-03T00:03:46.268Z,1017.43
2023-01-03T00:04:49.782Z,1017.47
2023-01-03T00:05:46.183Z,1017.49
2023-01-03T00:06:46.235Z,1017.47
2023-01-03T00:07:46.180Z,1017.50
2023-01-03T00:08:46.203Z,1017.50
2023-01-03T00:09:46.182Z,1017.51
2023-01-03T00:10:46.175Z,1017.49
2023-01-03T00:11:46.178Z,1017.50
2023-01-03T00:12:46.170Z,1017.53
2023-01-03T00:13:46.176Z,1017.56
2023-01-03T00:14:46.168Z,1017.51
2023-01-03T00:15:46.182Z,1017.57
2023-01-03T00:16:46.222Z,1017.54
2023-01-03T00:17:46.163Z,1017.56
2023-01-03T00:18:46.163Z,1017.62
2023-01-03T00:19:46.168Z,1017.65
2023-01-03T00:20:46.156Z,1017.67
2023-01-03T00:21:46.179Z,1017.70
2023-01-03T00:22:46.192Z,1017.74
2023-01-03T00:23:46.161Z,1017.76
2023-01-03T00:24:46.198Z,1017.74
2023-01-03T00:25:46.158Z,1017.79
2023-01-03T00:26:46.149Z,1017.82
2023-01-03T00:27:46.160Z,1017.80
2023-01-03T00:28:46.161Z,1017.81
2023-01-03T00:29:46.173Z,1017.88
2023-01-03T00:30:46.235Z,1017.88
2023-01-03T00:31:46.146Z,1017.92
2023-01-03T00:32:46.141Z,1017.89
2023-01-03T00:33:46.146Z,1017.91
2023-01-03T00:34:46.152Z,1017.94
2023-01-03T00:35:46.142Z,1017.92
2023-01-03T00:36:46.136Z,1017.94
2023-01-03T00:37:46.139Z,1017.96
2023-01-03T00:38:46.264Z,1017.96
2023-01-03T00:39:46.144Z,1018.00
2023-01-03T00:40:46.127Z,1018.06
2023-01-03T00:41:46.137Z,1017.97
2023-01-03T00:42:46.128Z,1018.03
2023-01-03T00:43:46.134Z,1018.01
2023-01-03T00:44:46.135Z,1018.02
2023-01-03T00:45:46.212Z,1017.99
2023-01-03T00:46:46.120Z,1018.00
2023-01-03T00:47:46.130Z,1017.98
2023-01-03T00:48:46.123Z,1018.02
2023-01-03T00:49:46.127Z,1018.00
2023-01-03T00:50:46.128Z,1017.96
2023-01-03T00:51:46.120Z,1017.97
2023-01-03T00:52:46.139Z,1018.00
2023-01-03T00:53:46.131Z,1018.11
2023-01-03T00:54:46.226Z,1018.00
2023-01-03T00:55:46.106Z,1018.06
2023-01-03T00:56:46.105Z,1018.03
2023-01-03T00:57:46.118Z,1018.02
2023-01-03T00:58:46.103Z,1018.07
2023-01-03T00:59:46.116Z,1018.08
2023-01-03T01:00:46.100Z,1018.13
2023-01-03T01:01:47.524Z,1018.14
2023-01-03T01:02:46.242Z,1018.14
2023-01-03T01:03:46.167Z,1018.13
2023-01-03T01:04:46.091Z,1018.20
2023-01-03T01:05:46.106Z,1018.14
2023-01-03T01:06:46.092Z,1018.22
2023-01-03T01:07:46.095Z,1018.23
2023-01-03T01:08:46.097Z,1018.24
2023-01-03T01:09:46.091Z,1018.30
2023-01-03T01:10:46.121Z,1018.32
2023-01-03T01:11:46.089Z,1018.32
2023-01-03T01:12:46.083Z,1018.30
2023-01-03T01:13:46.084Z,1018.35
2023-01-03T01:14:46.087Z,1018.36
2023-01-03T01:15:46.126Z,1018.36
2023-01-03T01:16:46.076Z,1018.39
2023-01-03T01:17:46.080Z,1018.43
2023-01-03T01:18:46.070Z,1018.43
2023-01-03T01:19:46.074Z,1018.46
2023-01-03T01:20:46.119Z,1018.43
2023-01-03T01:21:46.081Z,1018.47
2023-01-03T01:22:46.069Z,1018.48
2023-01-03T01:23:46.070Z,1018.53
2023-01-03T01:24:46.067Z,1018.58
2023-01-03T01:25:46.068Z,1018.62
2023-01-03T01:26:46.091Z,1018.66
2023-01-03T01:27:46.078Z,1018.67
2023-01-03T01:28:46.061Z,1018.68
2023-01-03T01:29:46.065Z,1018.73
2023-01-03T01:30:46.108Z,1018.77
2023-01-03T01:31:46.067Z,1018.74
2023-01-03T01:32:46.055Z,1018.68
2023-01-03T01:33:46.056Z,1018.76
2023-01-03T01:34:46.052Z,1018.76
2023-01-03T01:35:46.053Z,1018.78
2023-01-03T01:36:46.060Z,1018.78
2023-01-03T01:37:46.050Z,1018.78
2023-01-03T01:38:46.046Z,1018.83
2023-01-03T01:39:46.045Z,1018.92
2023-01-03T01:40:46.042Z,1018.93
2023-01-03T01:41:46.048Z,1018.89
2023-01-03T01:42:46.061Z,1018.96
2023-01-03T01:43:46.037Z,1018.97
2023-01-03T01:44:46.045Z,1018.95
2023-01-03T01:45:46.038Z,1019.02
2023-01-03T01:46:46.129Z,1019.04
2023-01-03T01:47:46.042Z,1019.02
2023-01-03T01:48:46.030Z,1019.07
2023-01-03T01:49:46.033Z,1019.02
2023-01-03T01:50:46.029Z,1018.99
2023-01-03T01:51:46.026Z,1019.02
2023-01-03T01:52:46.023Z,1019.02
2023-01-03T01:53:46.026Z,1019.07
2023-01-03T01:54:46.018Z,1019.09
2023-01-03T01:55:46.028Z,1019.10
2023-01-03T01:56:46.018Z,1019.12
2023-01-03T01:57:46.024Z,1019.10
2023-01-03T01:58:46.044Z,1019.08
2023-01-03T01:59:46.043Z,1019.13
2023-01-03T02:00:46.017Z,1019.13
2023-01-03T02:01:46.147Z,1019.12
2023-01-03T02:02:46.308Z,1019.15
2023-01-03T02:03:46.072Z,1019.12
2023-01-03T02:04:46.004Z,1019.11
2023-01-03T02:05:46.004Z,1019.12
2023-01-03T02:06:46.005Z,1019.12
2023-01-03T02:07:46.002Z,1019.14
2023-01-03T02:08:45.997Z,1019.17
2023-01-03T02:09:45.997Z,1019.19
2023-01-03T02:10:45.995Z,1019.16
2023-01-03T02:11:45.997Z,1019.17
2023-01-03T02:12:45.994Z,1019.16
2023-01-03T02:13:45.993Z,1019.19
2023-01-03T02:14:46.016Z,1019.28
2023-01-03T02:15:46.077Z,1019.32
2023-01-03T02:16:46.015Z,1019.21
2023-01-03T02:17:45.992Z,1019.22
2023-01-03T02:18:45.988Z,1019.25
2023-01-03T02:19:46.025Z,1019.30
2023-01-03T02:20:46.033Z,1019.40
2023-01-03T02:21:46.003Z,1019.35
2023-01-03T02:22:45.979Z,1019.36
2023-01-03T02:23:45.982Z,1019.44
2023-01-03T02:24:45.980Z,1019.42
2023-01-03T02:25:45.974Z,1019.39
2023-01-03T02:26:46.005Z,1019.43
2023-01-03T02:27:45.982Z,1019.46
2023-01-03T02:28:45.969Z,1019.48
2023-01-03T02:29:45.984Z,1019.53
2023-01-03T02:30:46.178Z,1019.46
2023-01-03T02:31:46.079Z,1019.51
2023-01-03T02:32:45.971Z,1019.58
2023-01-03T02:33:45.967Z,1019.53
2023-01-03T02:34:45.961Z,1019.54
2023-01-03T02:35:45.963Z,1019.54
2023-01-03T02:36:45.956Z,1019.58
2023-01-03T02:37:45.961Z,1019.63
2023-01-03T02:38:45.955Z,1019.57
2023-01-03T02:39:45.976Z,1019.60
2023-01-03T02:40:45.952Z,1019.59
2023-01-03T02:41:45.963Z,1019.58
2023-01-03T02:42:45.953Z,1019.65
2023-01-03T02:43:45.946Z,1019.69
2023-01-03T02:44:45.949Z,1019.64
2023-01-03T02:45:45.960Z,1019.66
2023-01-03T02:46:46.049Z,1019.71
2023-01-03T02:47:45.942Z,1019.72
2023-01-03T02:48:45.938Z,1019.75
2023-01-03T02:49:45.939Z,1019.76
2023-01-03T02:50:45.942Z,1019.75
2023-01-03T02:51:45.930Z,1019.79
2023-01-03T02:52:45.932Z,1019.78
2023-01-03T02:53:45.935Z,1019.80
2023-01-03T02:54:45.930Z,1019.80
2023-01-03T02:55:45.934Z,1019.77
2023-01-03T02:56:45.941Z,1019.75
2023-01-03T02:57:45.931Z,1019.76
2023-01-03T02:58:45.927Z,1019.80
2023-01-03T02:59:45.930Z,1019.73
2023-01-03T03:00:45.915Z,1019.76
2023-01-03T03:01:46.009Z,1019.75
2023-01-03T03:02:46.177Z,1019.74
2023-01-03T03:03:46.000Z,1019.73
2023-01-03T03:04:45.917Z,1019.73
2023-01-03T03:05:45.912Z,1019.75
2023-01-03T03:06:45.906Z,1019.76
2023-01-03T03:07:45.911Z,1019.81
2023-01-03T03:08:45.904Z,1019.75
2023-01-03T03:09:45.908Z,1019.75
2023-01-03T03:10:45.902Z,1019.82
2023-01-03T03:11:45.899Z,1019.81
2023-01-03T03:12:45.903Z,1019.85
2023-01-03T03:13:45.896Z,1019.89
2023-01-03T03:14:45.896Z,1019.90
2023-01-03T03:15:45.932Z,1019.93
2023-01-03T03:16:45.890Z,1019.91
2023-01-03T03:17:45.890Z,1020.00
2023-01-03T03:18:45.908Z,1019.94
2023-01-03T03:19:45.888Z,1019.95
2023-01-03T03:20:45.885Z,1019.96
2023-01-03T03:21:45.886Z,1019.99
2023-01-03T03:22:45.888Z,1019.98
2023-01-03T03:23:45.905Z,1020.00
2023-01-03T03:24:45.877Z,1020.07
2023-01-03T03:25:45.882Z,1019.97
2023-01-03T03:26:45.872Z,1019.98
2023-01-03T03:27:45.871Z,1020.03
2023-01-03T03:28:45.870Z,1019.98
2023-01-03T03:29:45.872Z,1020.03
2023-01-03T03:30:45.869Z,1020.02
2023-01-03T03:31:45.902Z,1020.12
2023-01-03T03:32:45.862Z,1020.09
2023-01-03T03:33:45.872Z,1020.10
2023-01-03T03:34:45.941Z,1020.11
2023-01-03T03:35:45.855Z,1020.18
2023-01-03T03:36:45.852Z,1020.12
2023-01-03T03:37:45.851Z,1020.17
2023-01-03T03:38:45.867Z,1020.20
2023-01-03T03:39:45.863Z,1020.21
2023-01-03T03:40:45.842Z,1020.17
2023-01-03T03:41:45.850Z,1020.20
2023-01-03T03:42:45.843Z,1020.24
2023-01-03T03:43:45.842Z,1020.20
2023-01-03T03:44:45.837Z,1020.22
2023-01-03T03:45:45.846Z,1020.28
2023-01-03T03:46:52.477Z,1020.27
2023-01-03T03:47:45.842Z,1020.27
2023-01-03T03:48:45.824Z,1020.30
2023-01-03T03:49:45.834Z,1020.29
2023-01-03T03:50:45.951Z,1020.34
2023-01-03T03:51:45.836Z,1020.27
2023-01-03T03:52:45.827Z,1020.29
2023-01-03T03:53:45.835Z,1020.30
2023-01-03T03:54:45.822Z,1020.33
2023-01-03T03:55:45.822Z,1020.30
2023-01-03T03:56:45.814Z,1020.30
2023-01-03T03:57:45.813Z,1020.33
2023-01-03T03:58:45.809Z,1020.31
2023-01-03T03:59:45.814Z,1020.35
2023-01-03T04:00:45.804Z,1020.33
2023-01-03T04:01:45.989Z,1020.35
2023-01-03T04:02:45.925Z,1020.32
2023-01-03T04:03:45.884Z,1020.35
2023-01-03T04:04:45.806Z,1020.33
2023-01-03T04:05:45.799Z,1020.35
2023-01-03T04:06:45.822Z,1020.38
2023-01-03T04:07:45.797Z,1020.39
2023-01-03T04:08:45.807Z,1020.43
2023-01-03T04:09:45.788Z,1020.47
2023-01-03T04:10:45.784Z,1020.47
2023-01-03T04:11:45.791Z,1020.51
2023-01-03T04:12:45.777Z,1020.50
2023-01-03T04:13:45.786Z,1020.47
2023-01-03T04:14:45.775Z,1020.55
2023-01-03T04:15:45.783Z,1020.54
2023-01-03T04:16:45.828Z,1020.56
2023-01-03T04:17:45.770Z,1020.62
2023-01-03T04:18:45.780Z,1020.61
2023-01-03T04:19:45.767Z,1020.60
2023-01-03T04:20:45.813Z,1020.60
2023-01-03T04:21:45.759Z,1020.64
2023-01-03T04:22:45.781Z,1020.68
2023-01-03T04:23:45.762Z,1020.64
2023-01-03T04:24:45.770Z,1020.68
2023-01-03T04:25:45.752Z,1020.65
2023-01-03T04:26:45.746Z,1020.67
2023-01-03T04:27:45.762Z,1020.75
2023-01-03T04:28:45.749Z,1020.74
2023-01-03T04:29:45.813Z,1020.77
2023-01-03T04:30:45.743Z,1020.79
2023-01-03T04:31:45.824Z,1020.82
2023-01-03T04:32:45.756Z,1020.83
2023-01-03T04:33:45.761Z,1020.85
2023-01-03T04:34:45.737Z,1020.91
2023-01-03T04:35:45.727Z,1020.89
2023-01-03T04:36:45.729Z,1020.93
2023-01-03T04:37:45.731Z,1021.03
2023-01-03T04:38:45.944Z,1021.03
2023-01-03T04:39:45.717Z,1021.02
2023-01-03T04:40:45.720Z,1021.04
2023-01-03T04:41:45.726Z,1021.02
2023-01-03T04:42:45.738Z,1021.04
2023-01-03T04:43:45.711Z,1021.07
2023-01-03T04:44:45.717Z,1021.07
2023-01-03T04:45:45.791Z,1021.06
2023-01-03T04:46:50.802Z,1021.04
2023-01-03T04:47:45.703Z,1021.06
2023-01-03T04:48:45.699Z,1021.06
2023-01-03T04:49:45.693Z,1021.08
2023-01-03T04:50:45.702Z,1021.07
2023-01-03T04:51:45.690Z,1021.08
2023-01-03T04:52:45.693Z,1021.07
2023-01-03T04:53:45.706Z,1021.09
2023-01-03T04:54:45.715Z,1021.15
2023-01-03T04:55:45.685Z,1021.11
2023-01-03T04:56:45.686Z,1021.09
2023-01-03T04:57:45.677Z,1021.14
2023-01-03T04:58:45.696Z,1021.15
2023-01-03T04:59:45.692Z,1021.16
2023-01-03T05:00:45.715Z,1021.17
2023-01-03T05:01:45.808Z,1021.14
2023-01-03T05:02:45.694Z,1021.21
2023-01-03T05:03:45.720Z,1021.18
2023-01-03T05:04:45.775Z,1021.18
2023-01-03T05:05:45.672Z,1021.23
2023-01-03T05:06:45.668Z,1021.23
2023-01-03T05:07:45.654Z,1021.22
2023-01-03T05:08:45.662Z,1021.29
2023-01-03T05:09:45.665Z,1021.28
2023-01-03T05:10:45.746Z,1021.28
2023-01-03T05:11:45.646Z,1021.32
2023-01-03T05:12:45.648Z,1021.33
2023-01-03T05:13:45.657Z,1021.30
2023-01-03T05:14:45.639Z,1021.30
2023-01-03T05:15:45.634Z,1021.27
2023-01-03T05:16:45.638Z,1021.25
2023-01-03T05:17:45.638Z,1021.26
2023-01-03T05:18:45.635Z,1021.29
2023-01-03T05:19:45.769Z,1021.31
2023-01-03T05:20:45.624Z,1021.31
2023-01-03T05:21:45.620Z,1021.27
2023-01-03T05:22:45.624Z,1021.29
2023-01-03T05:23:45.621Z,1021.34
2023-01-03T05:24:45.672Z,1021.31
2023-01-03T05:25:45.615Z,1021.32
2023-01-03T05:26:45.632Z,1021.29
2023-01-03T05:27:45.607Z,1021.31
2023-01-03T05:28:45.611Z,1021.31
2023-01-03T05:29:45.602Z,1021.34
2023-01-03T05:30:45.603Z,1021.38
2023-01-03T05:31:45.701Z,1021.38
2023-01-03T05:32:45.598Z,1021.41
2023-01-03T05:33:45.594Z,1021.43
2023-01-03T05:34:45.617Z,1021.46
2023-01-03T05:35:45.587Z,1021.44
2023-01-03T05:36:45.588Z,1021.47
2023-01-03T05:37:45.578Z,1021.49
2023-01-03T05:38:45.585Z,1021.47
2023-01-03T05:39:45.574Z,1021.47
2023-01-03T05:40:45.575Z,1021.49
2023-01-03T05:41:45.572Z,1021.48
2023-01-03T05:42:45.599Z,1021.50
2023-01-03T05:43:45.565Z,1021.48
2023-01-03T05:44:45.572Z,1021.46
2023-01-03T05:45:45.640Z,1021.50
2023-01-03T05:46:45.565Z,1021.56
2023-01-03T05:47:45.559Z,1021.52
2023-01-03T05:48:45.556Z,1021.54
2023-01-03T05:49:45.606Z,1021.55
2023-01-03T05:50:45.555Z,1021.58
2023-01-03T05:51:45.545Z,1021.58
2023-01-03T05:52:45.548Z,1021.59
2023-01-03T05:53:45.544Z,1021.63
2023-01-03T05:54:45.543Z,1021.58
2023-01-03T05:55:45.534Z,1021.56
2023-01-03T05:56:45.535Z,1021.55
2023-01-03T05:57:45.531Z,1021.62
2023-01-03T05:58:45.553Z,1021.65
2023-01-03T05:59:45.533Z,1021.65
2023-01-03T06:00:45.532Z,1021.61
2023-01-03T06:01:45.627Z,1021.66
2023-01-03T06:02:45.580Z,1021.63
2023-01-03T06:03:45.559Z,1021.61
2023-01-03T06:04:45.558Z,1021.62
2023-01-03T06:05:50.047Z,1021.62
2023-01-03T06:06:45.508Z,1021.65
2023-01-03T06:07:45.505Z,1021.65
2023-01-03T06:08:45.505Z,1021.70
2023-01-03T06:09:45.503Z,1021.75
2023-01-03T06:10:45.511Z,1021.75
2023-01-03T06:11:45.507Z,1021.75
2023-01-03T06:12:45.497Z,1021.78
2023-01-03T06:13:45.487Z,1021.78
2023-01-03T06:14:45.504Z,1021.76
2023-01-03T06:15:45.486Z,1021.83
2023-01-03T06:16:45.560Z,1021.81
2023-01-03T06:17:45.481Z,1021.78
2023-01-03T06:18:45.492Z,1021.80
2023-01-03T06:19:45.490Z,1021.77
2023-01-03T06:20:45.475Z,1021.78
2023-01-03T06:21:45.464Z,1021.80
2023-01-03T06:22:45.465Z,1021.80
2023-01-03T06:23:45.462Z,1021.82
2023-01-03T06:24:45.465Z,1021.84
2023-01-03T06:25:45.471Z,1021.87
2023-01-03T06:26:45.467Z,1021.86
2023-01-03T06:27:45.456Z,1021.87
2023-01-03T06:28:45.451Z,1021.93
2023-01-03T06:29:45.458Z,1021.86
2023-01-03T06:30:45.572Z,1021.90
2023-01-03T06:31:45.445Z,1021.90
2023-01-03T06:32:45.442Z,1021.92
2023-01-03T06:33:45.449Z,1021.97
2023-01-03T06:34:45.438Z,1021.98
2023-01-03T06:35:45.430Z,1021.99
2023-01-03T06:36:45.430Z,1022.00
2023-01-03T06:37:45.423Z,1022.01
2023-01-03T06:38:45.430Z,1022.03
2023-01-03T06:39:45.421Z,1022.06
2023-01-03T06:40:45.891Z,1022.09
2023-01-03T06:41:45.418Z,1022.08
2023-01-03T06:42:45.442Z,1022.11
2023-01-03T06:43:45.413Z,1022.11
2023-01-03T06:44:45.416Z,1022.13
2023-01-03T06:45:45.474Z,1022.15
2023-01-03T06:46:45.516Z,1022.15
2023-01-03T06:47:45.401Z,1022.19
2023-01-03T06:48:45.394Z,1022.13
2023-01-03T06:49:45.397Z,1022.16
2023-01-03T06:50:45.391Z,1022.16
2023-01-03T06:51:45.387Z,1022.18
2023-01-03T06:52:45.389Z,1022.20
2023-01-03T06:53:45.417Z,1022.17
2023-01-03T06:54:45.382Z,1022.20
2023-01-03T06:55:47.019Z,1022.17
2023-01-03T06:56:45.378Z,1022.24
2023-01-03T06:57:45.384Z,1022.24
2023-01-03T06:58:45.370Z,1022.22
2023-01-03T06:59:45.365Z,1022.21
2023-01-03T07:00:45.370Z,1022.21
2023-01-03T07:01:45.556Z,1022.25
2023-01-03T07:02:45.552Z,1022.25
2023-01-03T07:03:45.359Z,1022.28
2023-01-03T07:04:45.438Z,1022.32
2023-01-03T07:05:45.348Z,1022.30
2023-01-03T07:06:45.362Z,1022.31
2023-01-03T07:07:45.340Z,1022.31
2023-01-03T07:08:48.368Z,1022.42
2023-01-03T07:09:45.345Z,1022.42
2023-01-03T07:10:45.365Z,1022.42
2023-01-03T07:11:45.326Z,1022.45
2023-01-03T07:12:45.328Z,1022.49
2023-01-03T07:13:45.327Z,1022.47
2023-01-03T07:14:45.327Z,1022.45
2023-01-03T07:15:45.419Z,1022.49
2023-01-03T07:16:45.317Z,1022.51
2023-01-03T07:17:45.310Z,1022.50
2023-01-03T07:18:52.633Z,1022.49
2023-01-03T07:19:45.308Z,1022.51
2023-01-03T07:20:45.310Z,1022.52
2023-01-03T07:21:45.301Z,1022.55
2023-01-03T07:22:45.297Z,1022.50
2023-01-03T07:23:45.294Z,1022.54
2023-01-03T07:24:45.313Z,1022.53
2023-01-03T07:25:45.295Z,1022.52
2023-01-03T07:26:45.289Z,1022.59
2023-01-03T07:27:45.282Z,1022.58
2023-01-03T07:28:45.281Z,1022.59
2023-01-03T07:29:45.298Z,1022.58
2023-01-03T07:30:45.301Z,1022.62
2023-01-03T07:31:45.347Z,1022.62
2023-01-03T07:32:45.269Z,1022.64
2023-01-03T07:33:45.267Z,1022.63
2023-01-03T07:34:45.282Z,1022.62
2023-01-03T07:35:45.306Z,1022.64
2023-01-03T07:36:45.259Z,1022.67
2023-01-03T07:37:45.252Z,1022.69
2023-01-03T07:38:45.276Z,1022.68
2023-01-03T07:39:45.249Z,1022.75
2023-01-03T07:40:45.254Z,1022.72
2023-01-03T07:41:45.273Z,1022.71
2023-01-03T07:42:45.257Z,1022.74
2023-01-03T07:43:45.229Z,1022.77
2023-01-03T07:44:45.237Z,1022.71
2023-01-03T07:45:45.243Z,1022.76
2023-01-03T07:46:45.366Z,1022.74
2023-01-03T07:47:45.232Z,1022.78
2023-01-03T07:48:45.243Z,1022.78
2023-01-03T07:49:45.236Z,1022.78
2023-01-03T07:50:45.251Z,1022.78
2023-01-03T07:51:45.216Z,1022.78
2023-01-03T07:52:45.214Z,1022.76
2023-01-03T07:53:45.210Z,1022.80
2023-01-03T07:54:45.202Z,1022.80
2023-01-03T07:55:45.205Z,1022.80
2023-01-03T07:56:45.199Z,1022.84
2023-01-03T07:57:45.192Z,1022.85
2023-01-03T07:58:45.194Z,1022.86
2023-01-03T07:59:45.189Z,1022.83
2023-01-03T08:00:45.186Z,1022.87
2023-01-03T08:01:45.350Z,1022.81
2023-01-03T08:02:45.486Z,1022.90
2023-01-03T08:03:45.182Z,1022.85
2023-01-03T08:04:45.268Z,1022.85
2023-01-03T08:05:45.179Z,1022.89
2023-01-03T08:06:45.193Z,1022.91
2023-01-03T08:07:45.159Z,1022.90
2023-01-03T08:08:45.166Z,1022.89
2023-01-03T08:09:45.151Z,1022.95
2023-01-03T08:10:45.164Z,1022.94
2023-01-03T08:11:45.152Z,1022.99
2023-01-03T08:12:45.153Z,1022.98
2023-01-03T08:13:45.154Z,1022.98
2023-01-03T08:14:45.145Z,1023.00
2023-01-03T08:15:45.200Z,1023.05
2023-01-03T08:16:45.137Z,1023.05
2023-01-03T08:17:45.130Z,1023.04
2023-01-03T08:18:45.135Z,1023.09
2023-01-03T08:19:45.956Z,1023.09
2023-01-03T08:20:45.127Z,1023.09
2023-01-03T08:21:45.120Z,1023.13
2023-01-03T08:22:45.151Z,1023.14
2023-01-03T08:23:45.115Z,1023.10
2023-01-03T08:24:45.119Z,1023.13
2023-01-03T08:25:45.112Z,1023.14
2023-01-03T08:26:45.120Z,1023.19
2023-01-03T08:27:49.999Z,1023.20
2023-01-03T08:28:45.109Z,1023.28
2023-01-03T08:29:45.095Z,1023.26
2023-01-03T08:30:45.106Z,1023.29
2023-01-03T08:31:45.150Z,1023.33
2023-01-03T08:32:45.095Z,1023.34
2023-01-03T08:33:45.094Z,1023.37
2023-01-03T08:34:45.089Z,1023.34
2023-01-03T08:35:45.087Z,1023.41
2023-01-03T08:36:45.080Z,1023.33
2023-01-03T08:37:45.078Z,1023.36
2023-01-03T08:38:45.095Z,1023.36
2023-01-03T08:39:45.080Z,1023.33
2023-01-03T08:40:45.078Z,1023.35
2023-01-03T08:41:45.063Z,1023.35
2023-01-03T08:42:45.067Z,1023.35
2023-01-03T08:43:45.126Z,1023.37
2023-01-03T08:44:45.291Z,1023.35
2023-01-03T08:45:45.079Z,1023.35
2023-01-03T08:46:45.185Z,1023.36
2023-01-03T08:47:45.046Z,1023.40
2023-01-03T08:48:45.053Z,1023.36
2023-01-03T08:49:45.050Z,1023.39
2023-01-03T08:50:45.041Z,1023.39
2023-01-03T08:51:45.039Z,1023.42
2023-01-03T08:52:45.035Z,1023.46
2023-01-03T08:53:45.037Z,1023.45
2023-01-03T08:54:45.073Z,1023.50
2023-01-03T08:55:45.031Z,1023.43
2023-01-03T08:56:45.028Z,1023.47
2023-01-03T08:57:45.043Z,1023.51
2023-01-03T08:58:45.031Z,1023.52
2023-01-03T08:59:45.019Z,1023.54
2023-01-03T09:00:45.014Z,1023.53
2023-01-03T09:01:45.280Z,1023.49
2023-01-03T09:02:45.336Z,1023.55
2023-01-03T09:03:45.270Z,1023.59
2023-01-03T09:04:45.013Z,1023.61
2023-01-03T09:05:45.008Z,1023.56
2023-01-03T09:06:45.003Z,1023.59
2023-01-03T09:07:44.998Z,1023.58
2023-01-03T09:08:45.001Z,1023.58
2023-01-03T09:09:44.998Z,1023.61
2023-01-03T09:10:47.638Z,1023.61
2023-01-03T09:11:44.997Z,1023.68
2023-01-03T09:12:44.985Z,1023.63
2023-01-03T09:13:44.992Z,1023.67
2023-01-03T09:14:44.986Z,1023.68
2023-01-03T09:15:45.045Z,1023.69
2023-01-03T09:16:49.038Z,1023.68
2023-01-03T09:17:44.991Z,1023.74
2023-01-03T09:18:44.984Z,1023.78
2023-01-03T09:19:44.980Z,1023.79
2023-01-03T09:20:44.978Z,1023.80
2023-01-03T09:21:44.976Z,1023.78
2023-01-03T09:22:44.976Z,1023.82
2023-01-03T09:23:45.009Z,1023.85
2023-01-03T09:24:45.006Z,1023.90
2023-01-03T09:25:44.965Z,1023.91
2023-01-03T09:26:49.240Z,1023.92
2023-01-03T09:27:45.001Z,1023.96
2023-01-03T09:28:44.988Z,1024.02
2023-01-03T09:29:44.970Z,1024.05
2023-01-03T09:30:44.966Z,1024.11
2023-01-03T09:31:46.020Z,1024.12
2023-01-03T09:32:44.956Z,1024.19
2023-01-03T09:33:44.962Z,1024.18
2023-01-03T09:34:44.950Z,1024.15
2023-01-03T09:35:44.971Z,1024.19
2023-01-03T09:36:44.951Z,1024.15
2023-01-03T09:37:48.792Z,1024.18
2023-01-03T09:38:44.950Z,1024.15
2023-01-03T09:39:44.958Z,1024.27
2023-01-03T09:40:44.961Z,1024.24
2023-01-03T09:41:44.956Z,1024.22
2023-01-03T09:42:44.983Z,1024.20
2023-01-03T09:43:44.939Z,1024.17
2023-01-03T09:44:44.939Z,1024.18
2023-01-03T09:45:44.943Z,1024.13
2023-01-03T09:46:44.977Z,1024.14
2023-01-03T09:47:44.947Z,1024.15
2023-01-03T09:48:44.933Z,1024.13
2023-01-03T09:50:18.431Z,1024.14
2023-01-03T09:51:15.883Z,1024.06
2023-01-03T09:51:45.015Z,1024.11
2023-01-03T09:52:44.938Z,1024.11
2023-01-03T09:53:44.961Z,1024.06
2023-01-03T09:54:44.934Z,1024.10
2023-01-03T09:55:44.949Z,1024.07
2023-01-03T09:56:44.945Z,1024.09
2023-01-03T09:57:44.951Z,1024.12
2023-01-03T09:58:44.949Z,1024.06
2023-01-03T09:59:44.978Z,1024.07
2023-01-03T10:00:44.956Z,1024.05
2023-01-03T10:01:45.272Z,1024.05
2023-01-03T10:02:45.083Z,1024.05
2023-01-03T10:03:52.817Z,1024.08
2023-01-03T10:04:44.959Z,1024.02
2023-01-03T10:05:44.928Z,1023.97
2023-01-03T10:06:44.987Z,1023.96
2023-01-03T10:07:44.963Z,1023.94
2023-01-03T10:08:44.969Z,1023.91
2023-01-03T10:09:44.970Z,1023.89
2023-01-03T10:10:44.924Z,1023.89
2023-01-03T10:11:44.925Z,1023.91
2023-01-03T10:12:44.924Z,1023.92
2023-01-03T10:13:44.965Z,1023.87
2023-01-03T10:14:44.933Z,1023.86
2023-01-03T10:15:44.922Z,1023.85
2023-01-03T10:16:45.013Z,1023.85
2023-01-03T10:17:44.915Z,1023.79
2023-01-03T10:18:44.922Z,1023.85
2023-01-03T10:19:44.933Z,1023.73
2023-01-03T10:20:44.907Z,1023.80
2023-01-03T10:21:44.939Z,1023.74
2023-01-03T10:22:44.912Z,1023.74
2023-01-03T10:23:44.961Z,1023.73
2023-01-03T10:24:44.912Z,1023.78
2023-01-03T10:25:44.919Z,1023.75
2023-01-03T10:26:44.912Z,1023.73
2023-01-03T10:27:44.920Z,1023.78
2023-01-03T10:28:44.902Z,1023.72
2023-01-03T10:29:44.912Z,1023.72
2023-01-03T10:30:46.483Z,1023.73
2023-01-03T10:31:45.046Z,1023.71
2023-01-03T10:32:44.903Z,1023.75
2023-01-03T10:33:44.932Z,1023.79
2023-01-03T10:34:44.917Z,1023.77
2023-01-03T10:35:44.907Z,1023.76
2023-01-03T10:36:44.898Z,1023.76
2023-01-03T10:37:44.920Z,1023.79
2023-01-03T10:38:52.138Z,1023.83
2023-01-03T10:39:44.905Z,1023.83
2023-01-03T10:40:44.897Z,1023.80
2023-01-03T10:41:44.906Z,1023.79
2023-01-03T10:42:44.896Z,1023.84
2023-01-03T10:43:44.922Z,1023.86
2023-01-03T10:44:44.894Z,1023.90
2023-01-03T10:45:49.561Z,1023.84
2023-01-03T10:46:45.033Z,1023.88
2023-01-03T10:47:44.903Z,1023.88
2023-01-03T10:49:25.317Z,1023.87
2023-01-03T10:49:44.897Z,1023.94
2023-01-03T10:50:44.891Z,1023.94
2023-01-03T10:51:44.900Z,1023.94
2023-01-03T10:52:44.886Z,1023.98
2023-01-03T10:53:44.892Z,1023.98
2023-01-03T10:54:44.884Z,1023.99
2023-01-03T10:55:44.896Z,1023.99
2023-01-03T10:56:44.896Z,1023.93
2023-01-03T10:57:44.885Z,1023.89
2023-01-03T10:58:44.888Z,1023.90
2023-01-03T10:59:44.888Z,1023.84
2023-01-03T11:00:44.946Z,1023.87
2023-01-03T11:01:45.126Z,1023.82
2023-01-03T11:02:45.089Z,1023.79
2023-01-03T11:03:51.077Z,1023.79
2023-01-03T11:04:44.882Z,1023.79
2023-01-03T11:05:44.897Z,1023.81
2023-01-03T11:06:44.878Z,1023.84
2023-01-03T11:07:44.888Z,1023.79
2023-01-03T11:08:44.877Z,1023.82
2023-01-03T11:09:50.663Z,1023.81
2023-01-03T11:10:44.885Z,1023.85
2023-01-03T11:11:44.874Z,1023.81
2023-01-03T11:12:44.873Z,1023.81
2023-01-03T11:13:44.886Z,1023.82
2023-01-03T11:14:44.871Z,1023.77
2023-01-03T11:15:44.893Z,1023.75
2023-01-03T11:16:44.940Z,1023.76
2023-01-03T11:17:44.875Z,1023.82
2023-01-03T11:18:44.901Z,1023.83
2023-01-03T11:19:44.883Z,1023.89
2023-01-03T11:20:44.878Z,1023.82
2023-01-03T11:21:44.885Z,1023.89
2023-01-03T11:22:44.872Z,1023.84
2023-01-03T11:23:44.871Z,1023.81
2023-01-03T11:24:44.864Z,1023.77
2023-01-03T11:25:44.872Z,1023.75
2023-01-03T11:26:44.867Z,1023.74
2023-01-03T11:27:44.873Z,1023.79
2023-01-03T11:28:44.865Z,1023.83
2023-01-03T11:29:44.873Z,1023.79
2023-01-03T11:30:44.863Z,1023.79
2023-01-03T11:31:44.961Z,1023.79
2023-01-03T11:32:44.858Z,1023.74
2023-01-03T11:33:44.864Z,1023.71
2023-01-03T11:35:20.862Z,1023.67
2023-01-03T11:35:44.861Z,1023.73
2023-01-03T11:36:44.864Z,1023.65
2023-01-03T11:37:44.860Z,1023.73
2023-01-03T11:38:44.857Z,1023.78
2023-01-03T11:39:44.864Z,1023.70
2023-01-03T11:40:44.864Z,1023.73
2023-01-03T11:41:44.882Z,1023.67
2023-01-03T11:42:44.853Z,1023.72
2023-01-03T11:43:44.859Z,1023.76
2023-01-03T11:44:44.862Z,1023.75
2023-01-03T11:45:48.784Z,1023.77
2023-01-03T11:46:44.863Z,1023.79
2023-01-03T11:47:44.855Z,1023.80
2023-01-03T11:48:44.845Z,1023.78
2023-01-03T11:49:44.847Z,1023.74
2023-01-03T11:50:44.879Z,1023.74
2023-01-03T11:51:44.847Z,1023.79
2023-01-03T11:52:44.846Z,1023.78
2023-01-03T11:53:47.880Z,1023.74
2023-01-03T11:54:51.017Z,1023.78
2023-01-03T11:55:44.842Z,1023.78
2023-01-03T11:56:44.842Z,1023.78
2023-01-03T11:57:44.846Z,1023.86
2023-01-03T11:58:44.837Z,1023.77
2023-01-03T11:59:45.166Z,1023.87
2023-01-03T12:00:44.838Z,1023.86
2023-01-03T12:01:44.947Z,1023.80
2023-01-03T12:02:44.875Z,1023.75
2023-01-03T12:03:44.917Z,1023.70
2023-01-03T12:04:44.825Z,1023.69
2023-01-03T12:05:44.874Z,1023.64